Fair Bluff, North Carolina
Current Conditions -  °F | °C
As of 10:35 PM on Wednesday 22 Oct 2014 (Local Time) from KCPC Reporting Station
Clear Clear  
Wind Chill: 55°   Ceiling: Unl
Heat Index: 55°   Visibility: 10mi
Dew Point: 44°   Wind: 0mph
Humidity: 65%   Direction: NA
Pressure: 30.04"   Gusts: NA
Location:  34.31°N, 79.04°W
Report Text: KCPC 230235Z AUTO 00000KT 10SM CLR 13/07 A3004 RMK AO2 T01290065
Loading
Personal Weather Stations






























Interactive Weather Map
Tropical Storm Tracking
New forecast layout! Learn more

10-Day Weather Forecast

Advertisements
Track Severe Weather on mobile